sensor_id;sensor_type;location;lat;lon;timestamp;temperature;humidity
78619;DHT22;67941;52.506;5.470;2023-06-14T00:00:40;18.40;52.20
78619;DHT22;67941;52.506;5.470;2023-06-14T00:03:10;18.40;52.10
78619;DHT22;67941;52.506;5.470;2023-06-14T00:05:43;18.40;52.10
78619;DHT22;67941;52.506;5.470;2023-06-14T00:08:13;18.30;52.10
78619;DHT22;67941;52.506;5.470;2023-06-14T00:10:42;18.30;52.10
78619;DHT22;67941;52.506;5.470;2023-06-14T00:13:14;18.20;52.00
78619;DHT22;67941;52.506;5.470;2023-06-14T00:15:43;18.20;52.00
78619;DHT22;67941;52.506;5.470;2023-06-14T00:18:12;18.10;52.00
78619;DHT22;67941;52.506;5.470;2023-06-14T00:20:42;18.10;52.00
78619;DHT22;67941;52.506;5.470;2023-06-14T00:23:12;18.10;52.00
78619;DHT22;67941;52.506;5.470;2023-06-14T00:25:41;18.00;52.00
78619;DHT22;67941;52.506;5.470;2023-06-14T00:28:10;18.00;52.00
78619;DHT22;67941;52.506;5.470;2023-06-14T00:30:44;18.00;52.00
78619;DHT22;67941;52.506;5.470;2023-06-14T00:33:13;17.90;52.00
78619;DHT22;67941;52.506;5.470;2023-06-14T00:35:43;17.80;52.00
78619;DHT22;67941;52.506;5.470;2023-06-14T00:38:13;17.80;52.10
78619;DHT22;67941;52.506;5.470;2023-06-14T00:40:42;17.80;52.10
78619;DHT22;67941;52.506;5.470;2023-06-14T00:43:13;17.70;52.10
78619;DHT22;67941;52.506;5.470;2023-06-14T00:45:46;17.70;52.10
78619;DHT22;67941;52.506;5.470;2023-06-14T00:48:15;17.60;52.20
78619;DHT22;67941;52.506;5.470;2023-06-14T00:50:45;17.60;52.20
78619;DHT22;67941;52.506;5.470;2023-06-14T00:53:15;17.50;52.20
78619;DHT22;67941;52.506;5.470;2023-06-14T00:55:46;17.50;52.20
78619;DHT22;67941;52.506;5.470;2023-06-14T00:58:16;17.50;52.20
78619;DHT22;67941;52.506;5.470;2023-06-14T01:00:48;17.40;52.20
78619;DHT22;67941;52.506;5.470;2023-06-14T01:03:17;17.40;52.20
78619;DHT22;67941;52.506;5.470;2023-06-14T01:05:49;17.30;52.20
78619;DHT22;67941;52.506;5.470;2023-06-14T01:08:28;17.20;52.20
78619;DHT22;67941;52.506;5.470;2023-06-14T01:11:07;17.20;52.30
78619;DHT22;67941;52.506;5.470;2023-06-14T01:13:42;17.20;52.30
78619;DHT22;67941;52.506;5.470;2023-06-14T01:16:15;17.10;52.30
78619;DHT22;67941;52.506;5.470;2023-06-14T01:18:44;17.00;52.30
78619;DHT22;67941;52.506;5.470;2023-06-14T01:21:20;17.00;52.30
78619;DHT22;67941;52.506;5.470;2023-06-14T01:23:52;16.90;52.30
78619;DHT22;67941;52.506;5.470;2023-06-14T01:26:22;16.90;52.30
78619;DHT22;67941;52.506;5.470;2023-06-14T01:28:52;16.80;52.40
78619;DHT22;67941;52.506;5.470;2023-06-14T01:31:25;16.80;52.40
78619;DHT22;67941;52.506;5.470;2023-06-14T01:33:55;16.80;52.40
78619;DHT22;67941;52.506;5.470;2023-06-14T01:36:27;16.80;52.40
78619;DHT22;67941;52.506;5.470;2023-06-14T01:38:59;16.70;52.50
78619;DHT22;67941;52.506;5.470;2023-06-14T01:41:30;16.70;52.50
78619;DHT22;67941;52.506;5.470;2023-06-14T01:44:00;16.70;52.50
78619;DHT22;67941;52.506;5.470;2023-06-14T01:46:29;16.60;52.50
78619;DHT22;67941;52.506;5.470;2023-06-14T01:48:59;16.60;52.50
78619;DHT22;67941;52.506;5.470;2023-06-14T01:51:28;16.60;52.50
78619;DHT22;67941;52.506;5.470;2023-06-14T01:54:00;16.60;52.50
78619;DHT22;67941;52.506;5.470;2023-06-14T01:56:31;16.50;52.60
78619;DHT22;67941;52.506;5.470;2023-06-14T01:59:00;16.50;52.60
78619;DHT22;67941;52.506;5.470;2023-06-14T02:01:29;16.50;52.60
78619;DHT22;67941;52.506;5.470;2023-06-14T02:04:02;16.40;52.70
78619;DHT22;67941;52.506;5.470;2023-06-14T02:06:31;16.40;52.70
78619;DHT22;67941;52.506;5.470;2023-06-14T02:09:03;16.40;52.70
78619;DHT22;67941;52.506;5.470;2023-06-14T02:11:34;16.40;52.80
78619;DHT22;67941;52.506;5.470;2023-06-14T02:14:04;16.30;52.90
78619;DHT22;67941;52.506;5.470;2023-06-14T02:16:33;16.30;52.90
78619;DHT22;67941;52.506;5.470;2023-06-14T02:19:02;16.20;53.00
78619;DHT22;67941;52.506;5.470;2023-06-14T02:21:51;16.20;53.00
78619;DHT22;67941;52.506;5.470;2023-06-14T02:24:23;16.10;53.00
78619;DHT22;67941;52.506;5.470;2023-06-14T02:26:52;16.10;53.10
78619;DHT22;67941;52.506;5.470;2023-06-14T02:29:21;16.00;53.10
78619;DHT22;67941;52.506;5.470;2023-06-14T02:31:50;16.00;53.20
78619;DHT22;67941;52.506;5.470;2023-06-14T02:34:20;16.00;53.30
78619;DHT22;67941;52.506;5.470;2023-06-14T02:36:49;16.00;53.40
78619;DHT22;67941;52.506;5.470;2023-06-14T02:39:22;16.00;53.40
78619;DHT22;67941;52.506;5.470;2023-06-14T02:41:51;15.90;53.50
78619;DHT22;67941;52.506;5.470;2023-06-14T02:44:24;15.90;53.50
78619;DHT22;67941;52.506;5.470;2023-06-14T02:46:53;15.80;53.60
78619;DHT22;67941;52.506;5.470;2023-06-14T02:49:24;15.80;53.70
78619;DHT22;67941;52.506;5.470;2023-06-14T02:51:54;15.80;53.70
78619;DHT22;67941;52.506;5.470;2023-06-14T02:54:26;15.80;53.80
78619;DHT22;67941;52.506;5.470;2023-06-14T02:56:54;15.80;53.90
78619;DHT22;67941;52.506;5.470;2023-06-14T02:59:23;15.80;54.00
78619;DHT22;67941;52.506;5.470;2023-06-14T03:01:55;15.70;54.00
78619;DHT22;67941;52.506;5.470;2023-06-14T03:04:24;15.70;54.00
78619;DHT22;67941;52.506;5.470;2023-06-14T03:06:55;15.60;54.10
78619;DHT22;67941;52.506;5.470;2023-06-14T03:09:27;15.60;54.10
78619;DHT22;67941;52.506;5.470;2023-06-14T03:11:56;15.60;54.20
78619;DHT22;67941;52.506;5.470;2023-06-14T03:14:28;15.60;54.30
78619;DHT22;67941;52.506;5.470;2023-06-14T03:16:58;15.50;54.30
78619;DHT22;67941;52.506;5.470;2023-06-14T03:19:28;15.50;54.30
78619;DHT22;67941;52.506;5.470;2023-06-14T03:21:58;15.50;54.40
78619;DHT22;67941;52.506;5.470;2023-06-14T03:24:32;15.50;54.40
78619;DHT22;67941;52.506;5.470;2023-06-14T03:27:06;15.50;54.50
78619;DHT22;67941;52.506;5.470;2023-06-14T03:29:37;15.50;54.50
78619;DHT22;67941;52.506;5.470;2023-06-14T03:32:08;15.50;54.60
78619;DHT22;67941;52.506;5.470;2023-06-14T03:34:42;15.50;54.60
78619;DHT22;67941;52.506;5.470;2023-06-14T03:37:18;15.50;54.70
78619;DHT22;67941;52.506;5.470;2023-06-14T03:39:50;15.40;54.70
78619;DHT22;67941;52.506;5.470;2023-06-14T03:42:22;15.40;54.80
78619;DHT22;67941;52.506;5.470;2023-06-14T03:44:51;15.40;54.80
78619;DHT22;67941;52.506;5.470;2023-06-14T03:47:22;15.40;54.80
78619;DHT22;67941;52.506;5.470;2023-06-14T03:49:50;15.40;54.90
78619;DHT22;67941;52.506;5.470;2023-06-14T03:52:19;15.40;55.00
78619;DHT22;67941;52.506;5.470;2023-06-14T03:54:52;15.40;55.00
78619;DHT22;67941;52.506;5.470;2023-06-14T03:57:23;15.40;55.10
78619;DHT22;67941;52.506;5.470;2023-06-14T03:59:54;15.50;55.10
78619;DHT22;67941;52.506;5.470;2023-06-14T04:02:23;15.50;55.20
78619;DHT22;67941;52.506;5.470;2023-06-14T04:04:54;15.50;55.20
78619;DHT22;67941;52.506;5.470;2023-06-14T04:07:23;15.50;55.30
78619;DHT22;67941;52.506;5.470;2023-06-14T04:09:57;15.60;55.30
78619;DHT22;67941;52.506;5.470;2023-06-14T04:12:26;15.60;55.40
78619;DHT22;67941;52.506;5.470;2023-06-14T04:14:54;15.60;55.40
78619;DHT22;67941;52.506;5.470;2023-06-14T04:17:23;15.80;55.40
78619;DHT22;67941;52.506;5.470;2023-06-14T04:19:52;15.80;55.50
78619;DHT22;67941;52.506;5.470;2023-06-14T04:22:21;16.00;55.50
78619;DHT22;67941;52.506;5.470;2023-06-14T04:24:50;16.00;55.60
78619;DHT22;67941;52.506;5.470;2023-06-14T04:27:24;16.20;55.70
78619;DHT22;67941;52.506;5.470;2023-06-14T04:29:54;16.40;55.70
78619;DHT22;67941;52.506;5.470;2023-06-14T04:32:26;16.50;55.70
78619;DHT22;67941;52.506;5.470;2023-06-14T04:35:00;16.70;55.80
78619;DHT22;67941;52.506;5.470;2023-06-14T04:37:30;17.00;55.80
78619;DHT22;67941;52.506;5.470;2023-06-14T04:40:00;17.20;55.60
78619;DHT22;67941;52.506;5.470;2023-06-14T04:42:35;17.50;55.50
78619;DHT22;67941;52.506;5.470;2023-06-14T04:45:08;17.80;55.30
78619;DHT22;67941;52.506;5.470;2023-06-14T04:47:39;17.80;55.10
78619;DHT22;67941;52.506;5.470;2023-06-14T04:50:10;17.80;55.20
78619;DHT22;67941;52.506;5.470;2023-06-14T04:52:40;18.10;55.10
78619;DHT22;67941;52.506;5.470;2023-06-14T04:55:10;18.40;54.90
78619;DHT22;67941;52.506;5.470;2023-06-14T04:57:42;18.80;54.70
78619;DHT22;67941;52.506;5.470;2023-06-14T05:00:11;19.10;54.50
78619;DHT22;67941;52.506;5.470;2023-06-14T05:02:40;19.50;54.20
78619;DHT22;67941;52.506;5.470;2023-06-14T05:05:09;19.70;54.00
78619;DHT22;67941;52.506;5.470;2023-06-14T05:07:38;20.00;53.90
78619;DHT22;67941;52.506;5.470;2023-06-14T05:10:08;20.30;53.70
78619;DHT22;67941;52.506;5.470;2023-06-14T05:12:37;20.70;53.50
78619;DHT22;67941;52.506;5.470;2023-06-14T05:15:11;20.90;53.30
78619;DHT22;67941;52.506;5.470;2023-06-14T05:17:40;21.10;53.10
78619;DHT22;67941;52.506;5.470;2023-06-14T05:20:09;21.20;53.00
78619;DHT22;67941;52.506;5.470;2023-06-14T05:22:38;21.20;52.90
78619;DHT22;67941;52.506;5.470;2023-06-14T05:25:08;21.00;52.90
78619;DHT22;67941;52.506;5.470;2023-06-14T05:27:37;20.60;53.10
78619;DHT22;67941;52.506;5.470;2023-06-14T05:30:11;20.40;53.40
78619;DHT22;67941;52.506;5.470;2023-06-14T05:32:41;20.50;53.50
78619;DHT22;67941;52.506;5.470;2023-06-14T05:35:09;20.70;53.30
78619;DHT22;67941;52.506;5.470;2023-06-14T05:37:38;21.10;53.00
78619;DHT22;67941;52.506;5.470;2023-06-14T05:40:08;21.40;52.80
78619;DHT22;67941;52.506;5.470;2023-06-14T05:42:37;21.70;52.50
78619;DHT22;67941;52.506;5.470;2023-06-14T05:45:07;21.90;52.30
78619;DHT22;67941;52.506;5.470;2023-06-14T05:47:39;22.10;52.20
78619;DHT22;67941;52.506;5.470;2023-06-14T05:50:09;22.30;52.10
78619;DHT22;67941;52.506;5.470;2023-06-14T05:52:38;22.50;51.90
78619;DHT22;67941;52.506;5.470;2023-06-14T05:55:07;22.80;51.80
78619;DHT22;67941;52.506;5.470;2023-06-14T05:57:38;22.90;51.70
78619;DHT22;67941;52.506;5.470;2023-06-14T06:00:08;22.90;51.70
78619;DHT22;67941;52.506;5.470;2023-06-14T06:02:43;22.90;51.70
78619;DHT22;67941;52.506;5.470;2023-06-14T06:05:13;22.70;51.80
78619;DHT22;67941;52.506;5.470;2023-06-14T06:07:42;22.50;52.00
78619;DHT22;67941;52.506;5.470;2023-06-14T06:10:12;22.20;52.20
78619;DHT22;67941;52.506;5.470;2023-06-14T06:12:42;21.90;52.40
78619;DHT22;67941;52.506;5.470;2023-06-14T06:15:11;21.50;52.60
78619;DHT22;67941;52.506;5.470;2023-06-14T06:17:43;21.10;52.80
78619;DHT22;67941;52.506;5.470;2023-06-14T06:20:12;20.70;53.10
78619;DHT22;67941;52.506;5.470;2023-06-14T06:22:41;20.50;53.30
78619;DHT22;67941;52.506;5.470;2023-06-14T06:25:10;20.10;53.30
78619;DHT22;67941;52.506;5.470;2023-06-14T06:27:40;19.90;53.30
78619;DHT22;67941;52.506;5.470;2023-06-14T06:30:10;19.70;53.30
78619;DHT22;67941;52.506;5.470;2023-06-14T06:32:42;19.70;53.20
78619;DHT22;67941;52.506;5.470;2023-06-14T06:35:11;19.70;53.10
78619;DHT22;67941;52.506;5.470;2023-06-14T06:37:42;19.70;53.00
78619;DHT22;67941;52.506;5.470;2023-06-14T06:40:11;19.70;52.90
78619;DHT22;67941;52.506;5.470;2023-06-14T06:42:41;19.70;52.80
78619;DHT22;67941;52.506;5.470;2023-06-14T06:45:12;19.50;52.80
78619;DHT22;67941;52.506;5.470;2023-06-14T06:47:43;19.40;52.80
78619;DHT22;67941;52.506;5.470;2023-06-14T06:50:12;19.30;52.80
78619;DHT22;67941;52.506;5.470;2023-06-14T06:52:41;19.20;53.00
78619;DHT22;67941;52.506;5.470;2023-06-14T06:55:11;19.10;53.10
78619;DHT22;67941;52.506;5.470;2023-06-14T06:57:40;19.10;53.20
78619;DHT22;67941;52.506;5.470;2023-06-14T07:00:10;19.00;53.20
78619;DHT22;67941;52.506;5.470;2023-06-14T07:02:39;19.00;53.20
78619;DHT22;67941;52.506;5.470;2023-06-14T07:05:11;19.00;53.30
78619;DHT22;67941;52.506;5.470;2023-06-14T07:07:41;19.00;53.30
78619;DHT22;67941;52.506;5.470;2023-06-14T07:10:10;19.00;53.30
78619;DHT22;67941;52.506;5.470;2023-06-14T07:12:39;19.10;53.30
78619;DHT22;67941;52.506;5.470;2023-06-14T07:15:10;19.10;53.30
78619;DHT22;67941;52.506;5.470;2023-06-14T07:17:39;19.20;53.30
78619;DHT22;67941;52.506;5.470;2023-06-14T07:20:12;19.30;53.20
78619;DHT22;67941;52.506;5.470;2023-06-14T07:22:42;19.30;53.20
78619;DHT22;67941;52.506;5.470;2023-06-14T07:25:12;19.40;53.20
78619;DHT22;67941;52.506;5.470;2023-06-14T07:27:42;19.40;53.20
78619;DHT22;67941;52.506;5.470;2023-06-14T07:30:12;19.50;53.10
78619;DHT22;67941;52.506;5.470;2023-06-14T07:32:41;19.50;53.10
78619;DHT22;67941;52.506;5.470;2023-06-14T07:35:12;19.60;53.10
78619;DHT22;67941;52.506;5.470;2023-06-14T07:37:42;19.70;53.00
78619;DHT22;67941;52.506;5.470;2023-06-14T07:40:12;19.70;53.00
78619;DHT22;67941;52.506;5.470;2023-06-14T07:42:41;19.90;53.00
78619;DHT22;67941;52.506;5.470;2023-06-14T07:45:13;20.00;52.90
78619;DHT22;67941;52.506;5.470;2023-06-14T07:47:42;20.00;52.90
78619;DHT22;67941;52.506;5.470;2023-06-14T07:50:13;20.10;52.90
78619;DHT22;67941;52.506;5.470;2023-06-14T07:52:43;20.20;52.70
78619;DHT22;67941;52.506;5.470;2023-06-14T07:55:13;20.30;52.70
78619;DHT22;67941;52.506;5.470;2023-06-14T07:57:42;20.40;52.50
78619;DHT22;67941;52.506;5.470;2023-06-14T08:00:12;20.50;52.50
78619;DHT22;67941;52.506;5.470;2023-06-14T08:02:41;20.50;52.30
78619;DHT22;67941;52.506;5.470;2023-06-14T08:05:13;20.60;52.20
78619;DHT22;67941;52.506;5.470;2023-06-14T08:07:44;20.70;52.10
78619;DHT22;67941;52.506;5.470;2023-06-14T08:10:13;20.80;52.10
78619;DHT22;67941;52.506;5.470;2023-06-14T08:12:42;20.90;52.00
78619;DHT22;67941;52.506;5.470;2023-06-14T08:15:11;20.90;52.00
78619;DHT22;67941;52.506;5.470;2023-06-14T08:17:40;21.00;51.90
78619;DHT22;67941;52.506;5.470;2023-06-14T08:20:10;21.10;51.80
78619;DHT22;67941;52.506;5.470;2023-06-14T08:22:42;21.10;51.70
78619;DHT22;67941;52.506;5.470;2023-06-14T08:25:12;21.20;51.70
78619;DHT22;67941;52.506;5.470;2023-06-14T08:27:41;21.30;51.50
78619;DHT22;67941;52.506;5.470;2023-06-14T08:30:11;21.40;51.50
78619;DHT22;67941;52.506;5.470;2023-06-14T08:32:40;21.50;51.40
78619;DHT22;67941;52.506;5.470;2023-06-14T08:35:09;21.50;51.30
78619;DHT22;67941;52.506;5.470;2023-06-14T08:37:41;21.60;51.20
78619;DHT22;67941;52.506;5.470;2023-06-14T08:40:18;21.70;51.00
78619;DHT22;67941;52.506;5.470;2023-06-14T08:42:50;21.70;50.80
78619;DHT22;67941;52.506;5.470;2023-06-14T08:45:20;21.80;50.80
78619;DHT22;67941;52.506;5.470;2023-06-14T08:47:50;21.90;50.70
78619;DHT22;67941;52.506;5.470;2023-06-14T08:50:23;21.90;50.60
78619;DHT22;67941;52.506;5.470;2023-06-14T08:52:58;21.90;50.50
78619;DHT22;67941;52.506;5.470;2023-06-14T08:55:29;22.00;50.60
78619;DHT22;67941;52.506;5.470;2023-06-14T08:57:59;22.00;50.50
78619;DHT22;67941;52.506;5.470;2023-06-14T09:00:29;22.00;50.40
78619;DHT22;67941;52.506;5.470;2023-06-14T09:02:58;22.10;50.30
78619;DHT22;67941;52.506;5.470;2023-06-14T09:05:28;22.10;50.20
78619;DHT22;67941;52.506;5.470;2023-06-14T09:08:00;22.20;50.00
78619;DHT22;67941;52.506;5.470;2023-06-14T09:10:29;22.20;50.00
78619;DHT22;67941;52.506;5.470;2023-06-14T09:13:01;22.30;50.00
78619;DHT22;67941;52.506;5.470;2023-06-14T09:15:30;22.40;49.90
78619;DHT22;67941;52.506;5.470;2023-06-14T09:18:01;22.50;49.90
78619;DHT22;67941;52.506;5.470;2023-06-14T09:20:32;22.50;49.80
78619;DHT22;67941;52.506;5.470;2023-06-14T09:23:04;22.60;49.80
78619;DHT22;67941;52.506;5.470;2023-06-14T09:25:42;22.70;49.70
78619;DHT22;67941;52.506;5.470;2023-06-14T09:28:11;22.80;49.70
78619;DHT22;67941;52.506;5.470;2023-06-14T09:30:40;22.80;49.60
78619;DHT22;67941;52.506;5.470;2023-06-14T09:33:08;22.90;49.50
78619;DHT22;67941;52.506;5.470;2023-06-14T09:35:38;22.90;49.40
78619;DHT22;67941;52.506;5.470;2023-06-14T09:38:09;22.90;49.30
78619;DHT22;67941;52.506;5.470;2023-06-14T09:40:38;22.90;49.20
78619;DHT22;67941;52.506;5.470;2023-06-14T09:43:07;23.00;49.20
78619;DHT22;67941;52.506;5.470;2023-06-14T09:45:37;23.00;49.30
78619;DHT22;67941;52.506;5.470;2023-06-14T09:48:26;23.00;49.20
78619;DHT22;67941;52.506;5.470;2023-06-14T09:50:58;23.10;49.00
78619;DHT22;67941;52.506;5.470;2023-06-14T09:53:31;23.10;49.00
78619;DHT22;67941;52.506;5.470;2023-06-14T09:56:02;23.10;49.00
78619;DHT22;67941;52.506;5.470;2023-06-14T09:58:35;23.10;48.90
78619;DHT22;67941;52.506;5.470;2023-06-14T10:01:08;23.20;48.70
78619;DHT22;67941;52.506;5.470;2023-06-14T10:03:39;23.10;48.70
78619;DHT22;67941;52.506;5.470;2023-06-14T10:06:10;23.20;48.60
78619;DHT22;67941;52.506;5.470;2023-06-14T10:08:42;23.20;48.60
78619;DHT22;67941;52.506;5.470;2023-06-14T10:11:13;23.20;48.40
78619;DHT22;67941;52.506;5.470;2023-06-14T10:13:42;23.20;48.20
78619;DHT22;67941;52.506;5.470;2023-06-14T10:16:16;23.20;48.20
78619;DHT22;67941;52.506;5.470;2023-06-14T10:18:49;23.20;48.10
78619;DHT22;67941;52.506;5.470;2023-06-14T10:21:32;23.20;48.10
78619;DHT22;67941;52.506;5.470;2023-06-14T10:24:07;23.30;48.10
78619;DHT22;67941;52.506;5.470;2023-06-14T10:26:50;23.30;48.00
78619;DHT22;67941;52.506;5.470;2023-06-14T10:29:19;23.40;47.80
78619;DHT22;67941;52.506;5.470;2023-06-14T10:31:50;23.40;47.80
78619;DHT22;67941;52.506;5.470;2023-06-14T10:34:23;23.40;47.70
78619;DHT22;67941;52.506;5.470;2023-06-14T10:37:03;23.40;47.60
78619;DHT22;67941;52.506;5.470;2023-06-14T10:39:39;23.40;47.50
78619;DHT22;67941;52.506;5.470;2023-06-14T10:42:10;23.40;47.30
78619;DHT22;67941;52.506;5.470;2023-06-14T10:44:43;23.50;47.20
78619;DHT22;67941;52.506;5.470;2023-06-14T10:47:26;23.50;47.20
78619;DHT22;67941;52.506;5.470;2023-06-14T10:49:57;23.50;47.00
78619;DHT22;67941;52.506;5.470;2023-06-14T10:52:28;23.50;47.00
78619;DHT22;67941;52.506;5.470;2023-06-14T10:55:10;23.50;47.00
78619;DHT22;67941;52.506;5.470;2023-06-14T10:57:42;23.50;46.90
78619;DHT22;67941;52.506;5.470;2023-06-14T11:00:13;23.60;46.90
78619;DHT22;67941;52.506;5.470;2023-06-14T11:03:05;23.60;46.80
78619;DHT22;67941;52.506;5.470;2023-06-14T11:05:49;23.60;46.60
78619;DHT22;67941;52.506;5.470;2023-06-14T11:11:14;23.60;46.60
78619;DHT22;67941;52.506;5.470;2023-06-14T11:13:45;23.60;46.50
78619;DHT22;67941;52.506;5.470;2023-06-14T11:16:15;23.60;46.40
78619;DHT22;67941;52.506;5.470;2023-06-14T11:18:46;23.70;46.40
78619;DHT22;67941;52.506;5.470;2023-06-14T11:21:18;23.80;46.40
78619;DHT22;67941;52.506;5.470;2023-06-14T11:23:50;23.80;46.20
78619;DHT22;67941;52.506;5.470;2023-06-14T11:26:30;23.90;46.20
78619;DHT22;67941;52.506;5.470;2023-06-14T11:29:01;23.90;46.20
78619;DHT22;67941;52.506;5.470;2023-06-14T11:31:31;24.00;46.20
78619;DHT22;67941;52.506;5.470;2023-06-14T11:34:01;24.00;46.20
78619;DHT22;67941;52.506;5.470;2023-06-14T11:36:34;24.00;46.20
78619;DHT22;67941;52.506;5.470;2023-06-14T11:39:04;24.10;46.10
78619;DHT22;67941;52.506;5.470;2023-06-14T11:41:37;24.10;46.00
78619;DHT22;67941;52.506;5.470;2023-06-14T11:44:07;24.10;46.00
78619;DHT22;67941;52.506;5.470;2023-06-14T11:46:36;24.10;45.90
78619;DHT22;67941;52.506;5.470;2023-06-14T11:49:06;24.20;45.90
78619;DHT22;67941;52.506;5.470;2023-06-14T11:51:36;24.20;45.90
78619;DHT22;67941;52.506;5.470;2023-06-14T11:54:06;24.20;45.90
78619;DHT22;67941;52.506;5.470;2023-06-14T11:56:38;24.20;45.80
78619;DHT22;67941;52.506;5.470;2023-06-14T11:59:07;24.20;45.70
78619;DHT22;67941;52.506;5.470;2023-06-14T12:01:36;24.20;45.70
78619;DHT22;67941;52.506;5.470;2023-06-14T12:04:09;24.20;45.50
78619;DHT22;67941;52.506;5.470;2023-06-14T12:06:38;24.10;45.50
78619;DHT22;67941;52.506;5.470;2023-06-14T12:09:11;24.10;45.50
78619;DHT22;67941;52.506;5.470;2023-06-14T12:11:46;24.20;45.50
78619;DHT22;67941;52.506;5.470;2023-06-14T12:14:15;24.20;45.40
78619;DHT22;67941;52.506;5.470;2023-06-14T12:16:45;24.30;45.40
78619;DHT22;67941;52.506;5.470;2023-06-14T12:19:16;24.40;45.30
78619;DHT22;67941;52.506;5.470;2023-06-14T12:21:46;24.40;45.20
78619;DHT22;67941;52.506;5.470;2023-06-14T12:24:17;24.50;45.10
78619;DHT22;67941;52.506;5.470;2023-06-14T12:26:48;24.50;45.00
78619;DHT22;67941;52.506;5.470;2023-06-14T12:29:19;24.50;44.90
78619;DHT22;67941;52.506;5.470;2023-06-14T12:31:48;24.50;44.90
78619;DHT22;67941;52.506;5.470;2023-06-14T12:34:17;24.50;44.80
78619;DHT22;67941;52.506;5.470;2023-06-14T12:36:46;24.50;44.80
78619;DHT22;67941;52.506;5.470;2023-06-14T12:39:15;24.50;44.70
78619;DHT22;67941;52.506;5.470;2023-06-14T12:41:44;24.50;44.70
78619;DHT22;67941;52.506;5.470;2023-06-14T12:44:15;24.60;44.70
78619;DHT22;67941;52.506;5.470;2023-06-14T12:46:44;24.60;44.70
78619;DHT22;67941;52.506;5.470;2023-06-14T12:49:13;24.60;44.70
78619;DHT22;67941;52.506;5.470;2023-06-14T12:51:43;24.70;44.60
78619;DHT22;67941;52.506;5.470;2023-06-14T12:54:12;24.70;44.50
78619;DHT22;67941;52.506;5.470;2023-06-14T12:56:41;24.70;44.50
78619;DHT22;67941;52.506;5.470;2023-06-14T12:59:10;24.80;44.50
78619;DHT22;67941;52.506;5.470;2023-06-14T13:01:42;24.90;44.30
78619;DHT22;67941;52.506;5.470;2023-06-14T13:04:11;24.90;44.20
78619;DHT22;67941;52.506;5.470;2023-06-14T13:06:40;25.00;44.20
78619;DHT22;67941;52.506;5.470;2023-06-14T13:09:09;25.00;44.20
78619;DHT22;67941;52.506;5.470;2023-06-14T13:11:38;25.00;44.10
78619;DHT22;67941;52.506;5.470;2023-06-14T13:14:30;25.00;44.00
78619;DHT22;67941;52.506;5.470;2023-06-14T13:17:02;25.00;44.00
78619;DHT22;67941;52.506;5.470;2023-06-14T13:19:31;25.00;44.00
78619;DHT22;67941;52.506;5.470;2023-06-14T13:22:01;25.00;43.90
78619;DHT22;67941;52.506;5.470;2023-06-14T13:24:29;25.00;43.70
78619;DHT22;67941;52.506;5.470;2023-06-14T13:26:58;25.10;43.60
78619;DHT22;67941;52.506;5.470;2023-06-14T13:29:27;25.00;43.60
78619;DHT22;67941;52.506;5.470;2023-06-14T13:31:56;25.00;43.50
78619;DHT22;67941;52.506;5.470;2023-06-14T13:34:29;25.00;43.40
78619;DHT22;67941;52.506;5.470;2023-06-14T13:36:58;25.00;43.50
78619;DHT22;67941;52.506;5.470;2023-06-14T13:39:27;25.00;43.50
78619;DHT22;67941;52.506;5.470;2023-06-14T13:41:56;25.00;43.50
78619;DHT22;67941;52.506;5.470;2023-06-14T13:44:25;25.00;43.50
78619;DHT22;67941;52.506;5.470;2023-06-14T13:46:53;25.00;43.40
78619;DHT22;67941;52.506;5.470;2023-06-14T13:49:22;25.00;43.30
78619;DHT22;67941;52.506;5.470;2023-06-14T13:51:54;25.00;43.30
78619;DHT22;67941;52.506;5.470;2023-06-14T13:54:23;25.00;43.30
78619;DHT22;67941;52.506;5.470;2023-06-14T13:56:52;25.00;43.30
78619;DHT22;67941;52.506;5.470;2023-06-14T13:59:21;25.00;43.20
78619;DHT22;67941;52.506;5.470;2023-06-14T14:01:49;25.00;43.20
78619;DHT22;67941;52.506;5.470;2023-06-14T14:04:19;25.00;43.20
78619;DHT22;67941;52.506;5.470;2023-06-14T14:06:47;25.00;43.20
78619;DHT22;67941;52.506;5.470;2023-06-14T14:09:19;25.00;43.20
78619;DHT22;67941;52.506;5.470;2023-06-14T14:11:48;25.00;43.20
78619;DHT22;67941;52.506;5.470;2023-06-14T14:14:17;25.00;43.10
78619;DHT22;67941;52.506;5.470;2023-06-14T14:16:46;25.00;43.00
78619;DHT22;67941;52.506;5.470;2023-06-14T14:19:32;25.00;43.00
78619;DHT22;67941;52.506;5.470;2023-06-14T14:22:01;25.00;43.00
78619;DHT22;67941;52.506;5.470;2023-06-14T14:24:32;25.00;43.00
78619;DHT22;67941;52.506;5.470;2023-06-14T14:27:01;25.00;43.10
78619;DHT22;67941;52.506;5.470;2023-06-14T14:29:31;25.10;43.10
78619;DHT22;67941;52.506;5.470;2023-06-14T14:32:01;25.20;43.00
78619;DHT22;67941;52.506;5.470;2023-06-14T14:34:30;25.20;43.00
78619;DHT22;67941;52.506;5.470;2023-06-14T14:36:59;25.30;43.00
78619;DHT22;67941;52.506;5.470;2023-06-14T14:39:33;25.20;42.90
78619;DHT22;67941;52.506;5.470;2023-06-14T14:42:02;25.20;43.00
78619;DHT22;67941;52.506;5.470;2023-06-14T14:44:31;25.20;42.90
78619;DHT22;67941;52.506;5.470;2023-06-14T14:47:00;25.20;42.90
78619;DHT22;67941;52.506;5.470;2023-06-14T14:49:28;25.30;42.80
78619;DHT22;67941;52.506;5.470;2023-06-14T14:51:57;25.30;42.80
78619;DHT22;67941;52.506;5.470;2023-06-14T14:54:26;25.30;42.70
78619;DHT22;67941;52.506;5.470;2023-06-14T14:56:58;25.30;42.70
78619;DHT22;67941;52.506;5.470;2023-06-14T14:59:27;25.30;42.70
78619;DHT22;67941;52.506;5.470;2023-06-14T15:01:56;25.30;42.70
78619;DHT22;67941;52.506;5.470;2023-06-14T15:04:25;25.30;42.60
78619;DHT22;67941;52.506;5.470;2023-06-14T15:06:54;25.30;42.60
78619;DHT22;67941;52.506;5.470;2023-06-14T15:09:23;25.20;42.60
78619;DHT22;67941;52.506;5.470;2023-06-14T15:11:52;25.20;42.60
78619;DHT22;67941;52.506;5.470;2023-06-14T15:14:23;25.20;42.60
78619;DHT22;67941;52.506;5.470;2023-06-14T15:16:52;25.20;42.60
78619;DHT22;67941;52.506;5.470;2023-06-14T15:19:21;25.20;42.60
78619;DHT22;67941;52.506;5.470;2023-06-14T15:21:50;25.30;42.60
78619;DHT22;67941;52.506;5.470;2023-06-14T15:24:18;25.40;42.60
78619;DHT22;67941;52.506;5.470;2023-06-14T15:26:47;25.50;42.60
78619;DHT22;67941;52.506;5.470;2023-06-14T15:29:16;25.50;42.50
78619;DHT22;67941;52.506;5.470;2023-06-14T15:31:47;25.50;42.50
78619;DHT22;67941;52.506;5.470;2023-06-14T15:34:16;25.50;42.50
78619;DHT22;67941;52.506;5.470;2023-06-14T15:36:45;25.50;42.60
78619;DHT22;67941;52.506;5.470;2023-06-14T15:39:14;25.60;42.60
78619;DHT22;67941;52.506;5.470;2023-06-14T15:41:43;25.60;42.60
78619;DHT22;67941;52.506;5.470;2023-06-14T15:44:11;25.70;42.50
78619;DHT22;67941;52.506;5.470;2023-06-14T15:46:40;25.70;42.50
78619;DHT22;67941;52.506;5.470;2023-06-14T15:49:13;25.80;42.50
78619;DHT22;67941;52.506;5.470;2023-06-14T15:51:41;25.80;42.50
78619;DHT22;67941;52.506;5.470;2023-06-14T15:54:11;25.80;42.50